Time;durP1;ratioP1;P1;durP2;ratioP2;P2;SDS_P1;SDS_P2;PMS_P1;PMS_P2;Temp;Humidity;BMP_temperature;BMP_pressure;BME280_temperature;BME280_humidity;BME280_pressure;Samples;Min_cycle;Max_cycle;Signal;HPM_P1;HPM_P2
2022/11/27 00:01:26;;;;;;;22.33;15.67;;;;;;;7.73;65.78;95563.94;5016158;28;20200;-77
2022/11/27 00:03:54;;;;;;;23.23;16.13;;;;;;;7.62;65.61;95540.88;5007333;28;20259;-80
2022/11/27 00:06:23;;;;;;;22.57;15.93;;;;;;;7.70;65.78;95559.03;5017011;28;20180;-86
2022/11/27 00:08:51;;;;;;;24.13;15.83;;;;;;;7.70;65.74;95559.03;5001621;28;20263;-83
2022/11/27 00:11:19;;;;;;;22.57;16.00;;;;;;;7.69;65.78;95565.03;4999643;28;20688;-83
2022/11/27 00:13:47;;;;;;;24.77;15.40;;;;;;;7.68;65.88;95565.94;4999262;28;20544;-81
2022/11/27 00:16:16;;;;;;;26.63;15.30;;;;;;;7.66;65.61;95565.22;4999115;28;20204;-83
2022/11/27 00:18:43;;;;;;;27.00;15.83;;;;;;;7.62;65.83;95548.50;4999887;28;20557;-84
2022/11/27 00:21:12;;;;;;;21.97;15.93;;;;;;;7.67;66.02;95560.94;4998965;28;20655;-84
2022/11/27 00:23:39;;;;;;;23.67;15.83;;;;;;;7.66;65.89;95560.13;4998167;28;20196;-85
2022/11/27 00:26:06;;;;;;;22.40;15.03;;;;;;;7.66;65.83;95565.22;4997736;28;20232;-84
2022/11/27 00:28:34;;;;;;;23.77;14.90;;;;;;;7.62;65.97;95557.88;4998403;28;20217;-84
2022/11/27 00:31:02;;;;;;;20.73;14.90;;;;;;;7.60;66.00;95552.91;4998467;28;20235;-82
2022/11/27 00:33:30;;;;;;;20.30;15.20;;;;;;;7.66;66.18;95567.78;4998090;28;20196;-83
2022/11/27 00:36:01;;;;;;;21.93;15.33;;;;;;;7.67;66.05;95573.69;4998843;28;20182;-84
2022/11/27 00:38:28;;;;;;;22.67;15.23;;;;;;;7.67;65.99;95576.22;4999755;28;20193;-83
2022/11/27 00:40:58;;;;;;;23.23;14.57;;;;;;;7.67;66.03;95573.69;5000027;28;20216;-83
2022/11/27 00:43:25;;;;;;;21.30;15.00;;;;;;;7.64;66.04;95571.31;4998005;28;20329;-86
2022/11/27 00:45:51;;;;;;;24.97;15.43;;;;;;;7.67;66.06;95571.94;4999513;28;20196;-84
2022/11/27 00:48:18;;;;;;;19.30;14.57;;;;;;;7.63;66.06;95567.97;4997517;28;20208;-84
2022/11/27 00:50:46;;;;;;;21.17;14.43;;;;;;;7.69;65.94;95579.50;4997759;28;20189;-82
2022/11/27 00:53:13;;;;;;;20.47;14.87;;;;;;;7.68;66.11;95581.19;4997746;28;20193;-83
2022/11/27 00:55:40;;;;;;;21.77;14.30;;;;;;;7.53;66.10;95557.56;4996727;28;20196;-84
2022/11/27 00:58:07;;;;;;;22.97;14.20;;;;;;;7.68;66.10;95581.19;4997394;28;20535;-82
2022/11/27 01:00:33;;;;;;;22.70;14.20;;;;;;;7.67;66.11;95582.13;4998476;28;20200;-83
2022/11/27 01:03:00;;;;;;;18.87;14.13;;;;;;;7.68;66.13;95578.66;4997580;28;20232;-84
2022/11/27 01:05:27;;;;;;;19.47;14.37;;;;;;;7.67;66.13;95571.94;4997615;28;20192;-85
2022/11/27 01:07:55;;;;;;;23.77;14.37;;;;;;;7.63;66.03;95575.59;4997062;28;20200;-83
2022/11/27 01:10:22;;;;;;;21.63;14.53;;;;;;;7.67;66.03;95578.75;4998155;28;20189;-81
2022/11/27 01:12:49;;;;;;;21.70;14.20;;;;;;;7.67;66.13;95576.22;4994665;28;20580;-83
2022/11/27 01:15:16;;;;;;;20.03;14.47;;;;;;;7.67;66.15;95571.13;4994511;28;20197;-81
2022/11/27 01:17:43;;;;;;;18.80;13.70;;;;;;;7.64;66.04;95556.88;4993107;28;20574;-83
2022/11/27 01:20:11;;;;;;;20.93;14.60;;;;;;;7.67;66.05;95564.31;4994900;28;20200;-86
2022/11/27 01:22:38;;;;;;;22.83;15.20;;;;;;;7.58;66.14;95547.06;4994326;28;20197;-85
2022/11/27 01:25:08;;;;;;;20.90;14.40;;;;;;;7.66;65.97;95559.31;4994643;28;20239;-84
2022/11/27 01:27:35;;;;;;;23.70;15.23;;;;;;;7.66;66.09;95560.13;4993767;28;20181;-83
2022/11/27 01:30:02;;;;;;;23.27;14.63;;;;;;;7.66;66.00;95557.59;4994071;28;20273;-83
2022/11/27 01:32:28;;;;;;;21.90;13.77;;;;;;;7.66;66.09;95549.94;4994989;28;20229;-82
2022/11/27 01:34:55;;;;;;;16.93;12.90;;;;;;;7.65;66.08;95548.31;4994440;28;20569;-82
2022/11/27 01:37:22;;;;;;;24.17;15.50;;;;;;;7.62;66.29;95542.63;4999578;28;20683;-82
2022/11/27 01:39:49;;;;;;;23.60;14.30;;;;;;;7.69;66.06;95557.41;5000141;28;20255;-84
2022/11/27 01:42:17;;;;;;;23.93;15.20;;;;;;;7.64;66.16;95535.69;4994330;28;20181;-83
2022/11/27 01:44:50;;;;;;;21.90;14.90;;;;;;;7.70;66.19;95548.84;4995563;28;20197;-83
2022/11/27 01:47:29;;;;;;;22.83;15.67;;;;;;;7.71;66.16;95542.81;4997461;28;20188;-83
2022/11/27 01:50:03;;;;;;;22.00;14.90;;;;;;;7.72;66.07;95539.34;4997083;28;20185;-85
2022/11/27 01:52:33;;;;;;;21.83;14.57;;;;;;;7.71;66.11;95540.28;4998406;28;20217;-82
2022/11/27 01:55:05;;;;;;;24.87;16.07;;;;;;;7.73;66.17;95541.00;5002111;28;20367;-81
2022/11/27 01:57:37;;;;;;;22.20;15.33;;;;;;;7.74;66.09;95541.81;5016338;28;20188;-81
2022/11/27 02:00:06;;;;;;;22.30;15.87;;;;;;;7.76;66.12;95542.53;5014906;28;20208;-79
2022/11/27 02:02:33;;;;;;;21.03;14.23;;;;;;;7.76;66.04;95529.78;5018002;28;20203;-85
2022/11/27 02:05:02;;;;;;;21.80;15.03;;;;;;;7.78;66.06;95541.53;5013502;28;20256;-84
2022/11/27 02:07:29;;;;;;;21.60;14.50;;;;;;;7.81;66.05;95543.03;4995051;28;20191;-86
2022/11/27 02:09:56;;;;;;;22.50;14.97;;;;;;;7.83;66.13;95543.78;4997465;28;20189;-83
2022/11/27 02:12:25;;;;;;;23.03;15.87;;;;;;;7.85;65.99;95530.94;4995901;28;20217;-84
2022/11/27 02:15:03;;;;;;;20.77;14.63;;;;;;;7.87;65.72;95537.56;4995955;28;20208;-85
2022/11/27 02:17:36;;;;;;;21.97;15.30;;;;;;;7.84;66.03;95532.66;4993759;28;20544;-84
2022/11/27 02:20:23;;;;;;;21.63;15.63;;;;;;;7.89;65.92;95540.00;4997141;28;20196;-86
2022/11/27 02:23:05;;;;;;;22.60;15.07;;;;;;;7.93;66.02;95539.69;4998198;28;20420;-85
2022/11/27 02:25:41;;;;;;;23.70;15.13;;;;;;;7.94;66.15;95538.78;4999626;28;20224;-83
2022/11/27 02:28:24;;;;;;;20.30;14.90;;;;;;;7.88;66.06;95533.28;4993699;28;20200;-85
2022/11/27 02:31:01;;;;;;;23.07;15.00;;;;;;;7.96;66.17;95542.06;4993505;28;20197;-81
2022/11/27 02:33:32;;;;;;;21.13;15.63;;;;;;;7.92;66.07;95527.88;4994343;28;20271;-83
2022/11/27 02:36:06;;;;;;;20.10;14.03;;;;;;;7.90;65.93;95526.34;4995252;28;20197;-82
2022/11/27 02:38:39;;;;;;;21.03;15.53;;;;;;;8.04;65.93;95541.56;4995461;28;20190;-83
2022/11/27 02:41:10;;;;;;;20.10;14.53;;;;;;;8.04;66.13;95544.91;4993709;28;20181;-82
2022/11/27 02:43:39;;;;;;;20.50;14.43;;;;;;;7.97;66.05;95530.13;4993723;28;20243;-81
2022/11/27 02:46:10;;;;;;;22.00;14.67;;;;;;;8.09;66.05;95552.25;4993481;28;20189;-83
2022/11/27 02:48:44;;;;;;;19.77;14.67;;;;;;;8.11;66.00;95555.50;4993392;28;20296;-84
2022/11/27 02:51:14;;;;;;;20.97;14.73;;;;;;;7.82;65.88;95503.94;4993729;28;20233;-81
2022/11/27 02:53:45;;;;;;;18.37;13.50;;;;;;;8.11;66.13;95549.59;4996092;28;20747;-79
2022/11/27 02:56:16;;;;;;;21.47;14.63;;;;;;;8.11;66.08;95550.41;4996160;28;20212;-83
2022/11/27 02:58:45;;;;;;;19.77;13.70;;;;;;;8.15;65.91;95554.38;4996607;28;20193;-81
2022/11/27 03:01:15;;;;;;;20.90;14.77;;;;;;;8.17;65.91;95554.28;4999320;28;20197;-82
2022/11/27 03:03:45;;;;;;;19.27;14.23;;;;;;;8.18;65.89;95556.72;5000040;28;20203;-80
2022/11/27 03:06:18;;;;;;;20.17;15.03;;;;;;;8.20;66.12;95559.16;5007341;28;20181;-82
2022/11/27 03:08:52;;;;;;;18.63;14.60;;;;;;;8.16;66.05;95548.38;4997432;28;20549;-81
2022/11/27 03:11:19;;;;;;;18.77;14.50;;;;;;;8.20;66.07;95561.72;5003537;28;20264;-80
2022/11/27 03:13:49;;;;;;;20.60;14.97;;;;;;;8.22;65.99;95565.81;5003126;28;20220;-81
2022/11/27 03:16:28;;;;;;;22.73;14.80;;;;;;;8.23;65.99;95569.97;5000527;28;20192;-83
2022/11/27 03:19:03;;;;;;;19.00;14.23;;;;;;;8.23;65.91;95564.06;4996461;28;20200;-81
2022/11/27 03:21:34;;;;;;;21.90;13.83;;;;;;;8.23;66.01;95564.06;5001753;28;20192;-84
2022/11/27 03:24:01;;;;;;;20.37;14.17;;;;;;;8.23;66.08;95569.16;5000731;28;20208;-81
2022/11/27 03:26:28;;;;;;;18.80;13.63;;;;;;;8.24;66.00;95568.25;4998568;28;20236;-82
2022/11/27 03:29:00;;;;;;;23.67;14.70;;;;;;;8.25;66.00;95567.34;4994711;28;20185;-84
2022/11/27 03:31:30;;;;;;;22.37;15.20;;;;;;;8.10;65.67;95547.97;4993811;28;20196;-84
2022/11/27 03:33:57;;;;;;;21.83;13.97;;;;;;;8.22;65.86;95565.00;4992363;28;20197;-85
2022/11/27 03:36:24;;;;;;;21.07;14.27;;;;;;;8.23;65.97;95564.06;4992654;28;20190;-81
2022/11/27 03:38:53;;;;;;;18.83;14.20;;;;;;;8.24;65.95;95565.69;4996354;28;20193;-79
2022/11/27 03:41:26;;;;;;;19.23;13.87;;;;;;;8.22;66.12;95560.72;4993686;28;20201;-84
2022/11/27 03:44:04;;;;;;;21.20;14.03;;;;;;;8.23;65.94;95561.53;4993463;28;20271;-83
2022/11/27 03:46:42;;;;;;;21.23;14.03;;;;;;;8.22;66.06;95560.72;4992022;28;20188;-81
2022/11/27 03:49:18;;;;;;;19.30;14.23;;;;;;;8.21;65.87;95554.00;4992090;28;20200;-81
2022/11/27 03:51:54;;;;;;;20.50;15.00;;;;;;;8.22;65.87;95557.34;4992412;28;20189;-83
2022/11/27 03:54:29;;;;;;;17.47;13.47;;;;;;;8.22;65.92;95560.72;5006590;28;20197;-81
2022/11/27 03:57:00;;;;;;;19.00;13.67;;;;;;;8.23;65.85;95564.06;5003472;28;20180;-80
2022/11/27 03:59:30;;;;;;;20.73;14.83;;;;;;;8.22;65.88;95557.34;4992766;28;20424;-84
2022/11/27 04:01:59;;;;;;;24.27;15.47;;;;;;;8.22;65.97;95555.63;4991979;28;20186;-86
2022/11/27 04:04:26;;;;;;;19.83;14.43;;;;;;;8.22;65.81;95549.69;4992066;28;20196;-84
2022/11/27 04:06:52;;;;;;;19.73;14.50;;;;;;;8.23;66.00;95558.97;4992440;28;20197;-82
2022/11/27 04:09:19;;;;;;;21.83;15.27;;;;;;;8.22;65.90;95559.91;4991634;28;20203;-83
2022/11/27 04:11:46;;;;;;;20.70;14.80;;;;;;;8.21;65.83;95540.44;4992617;28;20200;-83
2022/11/27 04:14:13;;;;;;;22.53;15.00;;;;;;;8.23;66.02;95541.94;4992919;28;20197;-87
2022/11/27 04:16:41;;;;;;;21.07;14.80;;;;;;;8.23;65.93;95546.22;4993164;28;20208;-81
2022/11/27 04:19:09;;;;;;;19.93;14.33;;;;;;;8.23;65.99;95546.22;4992952;28;20197;-82
2022/11/27 04:21:38;;;;;;;21.83;16.27;;;;;;;8.15;65.86;95534.00;4992776;28;20248;-82
2022/11/27 04:24:05;;;;;;;20.87;16.10;;;;;;;8.22;65.91;95540.31;4993831;28;20273;-84
2022/11/27 04:26:32;;;;;;;19.13;14.27;;;;;;;8.22;65.92;95542.06;4993540;28;20236;-84
2022/11/27 04:28:59;;;;;;;21.57;15.83;;;;;;;8.21;66.08;95538.69;4993226;28;20649;-82
2022/11/27 04:31:26;;;;;;;22.60;14.97;;;;;;;8.17;65.82;95531.38;4994080;28;20197;-84
2022/11/27 04:33:52;;;;;;;22.67;14.43;;;;;;;8.18;65.90;95540.63;4994306;28;20235;-82
2022/11/27 04:36:21;;;;;;;20.23;15.20;;;;;;;8.19;66.08;95544.81;4995063;28;20192;-83
2022/11/27 04:38:48;;;;;;;24.43;16.83;;;;;;;8.18;65.94;95556.72;4990697;28;20199;-81
2022/11/27 04:41:14;;;;;;;21.97;15.97;;;;;;;8.18;65.97;95555.91;4991700;28;20185;-85
2022/11/27 04:43:42;;;;;;;23.47;17.07;;;;;;;8.19;66.04;95562.63;4991483;28;20684;-86
2022/11/27 04:46:08;;;;;;;21.33;16.03;;;;;;;8.19;66.04;95562.63;4991659;28;20197;-85
2022/11/27 04:48:35;;;;;;;26.03;16.93;;;;;;;8.19;66.04;95560.91;4993790;28;20192;-79
2022/11/27 04:51:03;;;;;;;24.23;16.43;;;;;;;8.19;65.91;95560.09;4995948;28;20185;-82
2022/11/27 04:53:32;;;;;;;24.30;18.23;;;;;;;8.20;66.04;95571.91;4995643;28;20225;-84
2022/11/27 04:55:58;;;;;;;24.87;18.20;;;;;;;8.15;66.20;95569.66;4996295;28;20196;-82
2022/11/27 04:58:25;;;;;;;24.53;18.23;;;;;;;8.17;66.06;95564.50;4995791;28;20196;-81
2022/11/27 05:00:52;;;;;;;26.00;18.50;;;;;;;8.18;66.13;95566.91;4995078;28;20204;-82
2022/11/27 05:03:19;;;;;;;25.60;17.80;;;;;;;8.20;66.05;95566.81;4995956;28;20197;-82
2022/11/27 05:05:46;;;;;;;29.37;19.80;;;;;;;8.16;65.92;95558.59;4994478;28;20311;-85
2022/11/27 05:08:14;;;;;;;30.50;20.03;;;;;;;8.20;66.00;95557.47;4995442;28;20200;-82
2022/11/27 05:10:42;;;;;;;23.87;17.83;;;;;;;8.20;66.01;95552.38;4995067;28;20200;-83
2022/11/27 05:13:09;;;;;;;26.40;19.60;;;;;;;8.20;66.10;95554.91;4996259;28;20219;-81
2022/11/27 05:15:36;;;;;;;25.53;18.20;;;;;;;8.19;66.11;95562.63;4996360;28;20185;-81
2022/11/27 05:18:06;;;;;;;29.03;20.43;;;;;;;8.19;66.06;95568.53;4997627;28;20200;-81
2022/11/27 05:20:33;;;;;;;25.73;18.17;;;;;;;8.20;65.94;95560.00;4997257;28;20193;-80
2022/11/27 05:22:59;;;;;;;27.80;18.97;;;;;;;8.06;66.14;95539.69;4997838;28;20204;-82
2022/11/27 05:25:26;;;;;;;29.63;18.40;;;;;;;8.20;66.06;95569.34;4998087;28;20252;-84
2022/11/27 05:27:54;;;;;;;26.70;19.20;;;;;;;8.09;65.93;95554.78;4998476;28;20189;-84
2022/11/27 05:30:21;;;;;;;29.33;19.30;;;;;;;8.18;66.09;95573.75;4996343;28;20200;-83
2022/11/27 05:32:48;;;;;;;25.67;18.50;;;;;;;8.09;66.07;95562.44;4994917;28;20205;-82
2022/11/27 05:35:15;;;;;;;24.90;17.60;;;;;;;8.16;65.82;95570.47;4994805;28;20204;-83
2022/11/27 05:37:42;;;;;;;27.67;18.93;;;;;;;8.15;66.00;95573.94;4994411;28;20275;-82
2022/11/27 05:40:09;;;;;;;26.27;18.67;;;;;;;8.15;66.14;95571.41;4994775;28;20687;-84
2022/11/27 05:42:36;;;;;;;26.50;18.73;;;;;;;8.15;66.16;95573.94;4993864;28;20193;-82
2022/11/27 05:45:05;;;;;;;26.33;18.43;;;;;;;8.05;66.09;95566.09;4994129;28;20201;-84
2022/11/27 05:47:32;;;;;;;27.20;17.93;;;;;;;8.12;66.01;95574.97;4994375;28;20193;-83
2022/11/27 05:49:59;;;;;;;26.27;17.67;;;;;;;8.13;66.21;95574.06;4993855;28;20197;-85
2022/11/27 05:52:26;;;;;;;24.97;18.17;;;;;;;8.14;66.27;95575.69;5000700;28;20201;-84
2022/11/27 05:54:53;;;;;;;27.53;18.47;;;;;;;8.15;66.24;95571.41;5008378;28;20189;-85
2022/11/27 05:57:20;;;;;;;27.20;18.03;;;;;;;8.11;66.42;95573.31;4998506;28;20181;-83
2022/11/27 05:59:50;;;;;;;28.97;19.47;;;;;;;8.12;66.14;95567.34;4993180;28;20193;-80
2022/11/27 06:02:18;;;;;;;25.63;18.43;;;;;;;8.19;66.30;95586.38;4990890;28;20323;-83
2022/11/27 06:04:45;;;;;;;25.33;19.37;;;;;;;8.21;66.25;95582.00;4994868;28;20188;-79
2022/11/27 06:07:12;;;;;;;26.83;20.07;;;;;;;8.23;66.10;95592.91;5002226;28;20255;-83
2022/11/27 06:09:39;;;;;;;31.60;21.43;;;;;;;8.24;66.12;95586.88;4992891;28;20189;-85
2022/11/27 06:12:06;;;;;;;24.60;18.23;;;;;;;8.26;66.17;95589.34;4992845;28;20221;-82
2022/11/27 06:14:34;;;;;;;29.40;19.20;;;;;;;8.28;66.17;95593.41;4993344;28;20743;-80
2022/11/27 06:17:01;;;;;;;20.40;9.90;;;;;;;8.57;96.85;95583.06;4983778;28;20202;-85
2022/11/27 06:19:30;;;;;;;19.70;12.77;;;;;;;9.39;100.00;95575.72;4973895;28;20197;-82
2022/11/27 06:21:57;;;;;;;28.23;18.93;;;;;;;10.05;100.00;95587.09;4983792;28;20635;-81
2022/11/27 06:24:24;;;;;;;27.53;16.03;;;;;;;10.32;100.00;95581.75;4976118;28;20193;-83
2022/11/27 06:26:51;;;;;;;23.03;14.90;;;;;;;10.44;100.00;95596.13;4993905;28;20196;-80
2022/11/27 06:29:18;;;;;;;24.10;14.40;;;;;;;10.43;96.39;95588.59;4993356;28;20216;-84
2022/11/27 06:31:45;;;;;;;21.07;15.33;;;;;;;10.39;92.81;95590.56;4992281;28;20197;-82
2022/11/27 06:34:12;;;;;;;25.90;16.40;;;;;;;10.34;89.54;95591.84;4992087;28;20225;-80
2022/11/27 06:36:41;;;;;;;19.97;15.07;;;;;;;10.15;86.48;95572.72;4995800;28;20224;-83
2022/11/27 06:39:12;;;;;;;20.80;14.90;;;;;;;10.18;83.84;95597.22;5003286;28;20185;-86
2022/11/27 06:41:39;;;;;;;25.07;17.07;;;;;;;10.03;81.96;95586.41;5003162;28;20189;-83
2022/11/27 06:44:06;;;;;;;23.30;16.80;;;;;;;10.03;80.51;95604.28;5007429;28;20193;-85
2022/11/27 06:46:33;;;;;;;23.03;16.40;;;;;;;9.93;79.36;95591.38;4994569;28;20244;-83
2022/11/27 06:49:01;;;;;;;21.87;16.33;;;;;;;9.90;78.42;95603.56;4981260;28;20197;-82
2022/11/27 06:51:30;;;;;;;25.73;17.93;;;;;;;9.85;77.77;95598.78;4994806;28;20212;-83
2022/11/27 06:54:01;;;;;;;25.63;17.33;;;;;;;9.80;76.75;95598.28;4993202;28;20209;-80
2022/11/27 06:56:30;;;;;;;28.60;16.90;;;;;;;9.70;76.37;95577.69;4992243;28;20544;-82
2022/11/27 06:58:58;;;;;;;24.57;17.93;;;;;;;9.72;75.81;95591.19;4990414;28;20656;-83
2022/11/27 07:01:29;;;;;;;27.17;18.37;;;;;;;9.60;75.30;95581.84;4993697;28;20189;-81
2022/11/27 07:04:02;;;;;;;27.20;18.63;;;;;;;9.55;75.20;95582.16;4992339;28;20664;-82
2022/11/27 07:06:30;;;;;;;26.00;18.87;;;;;;;9.57;74.86;95583.78;4990464;28;20189;-80
2022/11/27 07:08:58;;;;;;;26.73;18.73;;;;;;;9.56;74.95;95582.97;4992381;28;20284;-80
2022/11/27 07:11:27;;;;;;;26.80;18.53;;;;;;;9.46;74.40;95561.59;4990438;28;20204;-80
2022/11/27 07:13:56;;;;;;;31.97;19.93;;;;;;;9.42;73.93;95558.44;4991786;28;20213;-87
2022/11/27 07:16:23;;;;;;;25.87;17.53;;;;;;;9.66;73.74;95588.25;4992217;28;20251;-89
2022/11/27 07:18:52;;;;;;;26.33;19.13;;;;;;;9.69;73.67;95590.59;4990633;28;20192;-84
2022/11/27 07:21:19;;;;;;;30.03;19.67;;;;;;;9.70;73.31;95594.75;4990732;28;20239;-82
2022/11/27 07:23:46;;;;;;;27.53;19.03;;;;;;;9.71;72.89;95586.16;4989804;28;20287;-82
2022/11/27 07:26:17;;;;;;;29.47;20.03;;;;;;;9.68;72.45;95582.09;4990441;28;20236;-78
2022/11/27 07:28:45;;;;;;;29.70;18.97;;;;;;;9.68;72.43;95578.75;4989648;28;20200;-81
2022/11/27 07:31:13;;;;;;;28.47;19.53;;;;;;;9.73;71.60;95590.25;4989509;28;20189;-79
2022/11/27 07:33:40;;;;;;;27.93;18.13;;;;;;;9.74;71.38;95588.50;4989500;28;20266;-77
2022/11/27 07:36:10;;;;;;;28.60;20.33;;;;;;;9.75;71.05;95588.38;4989734;28;20239;-82
2022/11/27 07:38:37;;;;;;;26.13;20.70;;;;;;;9.77;70.80;95586.56;4989481;28;20697;-81
2022/11/27 07:41:05;;;;;;;26.77;19.13;;;;;;;9.77;70.27;95583.19;4990204;28;20212;-82
2022/11/27 07:43:34;;;;;;;27.70;19.00;;;;;;;9.80;70.13;95585.50;4994119;28;20959;-79
2022/11/27 07:46:04;;;;;;;26.90;18.07;;;;;;;9.82;69.71;95587.97;5000675;28;20259;-80
2022/11/27 07:48:31;;;;;;;27.80;18.67;;;;;;;9.82;69.55;95590.50;5002540;28;20200;-86
2022/11/27 07:51:00;;;;;;;25.60;18.07;;;;;;;9.76;69.07;95572.16;5009250;28;20189;-81
2022/11/27 07:53:27;;;;;;;26.90;18.13;;;;;;;9.83;68.78;95585.28;4999415;28;20209;-82
2022/11/27 07:55:54;;;;;;;27.83;18.90;;;;;;;9.85;68.71;95580.09;4994539;28;20209;-79
2022/11/27 07:58:21;;;;;;;28.93;18.50;;;;;;;9.86;68.32;95579.97;4992720;28;20286;-82
2022/11/27 08:00:49;;;;;;;26.03;18.40;;;;;;;9.88;68.05;95580.66;4991718;28;20196;-83
2022/11/27 08:03:16;;;;;;;23.83;17.60;;;;;;;9.89;68.10;95577.19;4990707;28;20546;-84
2022/11/27 08:05:43;;;;;;;26.43;18.77;;;;;;;9.89;67.94;95577.19;4992026;28;20195;-80
2022/11/27 08:08:10;;;;;;;27.40;18.37;;;;;;;9.88;67.86;95574.72;4992207;28;20219;-83
2022/11/27 08:10:38;;;;;;;24.37;19.50;;;;;;;9.92;67.42;95584.63;4993201;28;20192;-85
2022/11/27 08:13:06;;;;;;;23.30;17.73;;;;;;;9.91;67.60;95575.31;4993910;28;20268;-78
2022/11/27 08:15:33;;;;;;;26.23;19.03;;;;;;;9.94;67.31;95579.41;4994185;28;20201;-86
2022/11/27 08:18:02;;;;;;;27.67;19.23;;;;;;;9.95;67.17;95583.59;4998561;28;20197;-86
2022/11/27 08:20:29;;;;;;;27.53;17.80;;;;;;;9.91;66.76;95572.78;5001173;28;20220;-80
2022/11/27 08:22:57;;;;;;;24.87;18.13;;;;;;;9.96;67.02;95586.03;5006801;28;20194;-79
2022/11/27 08:25:24;;;;;;;27.07;18.50;;;;;;;9.97;66.63;95585.13;5008004;28;20671;-86
2022/11/27 08:27:51;;;;;;;27.63;18.93;;;;;;;10.00;66.66;95582.31;5006735;28;20196;-82
2022/11/27 08:30:18;;;;;;;26.33;16.93;;;;;;;9.97;66.46;95577.44;5003271;28;20196;-84
2022/11/27 08:32:44;;;;;;;24.17;18.20;;;;;;;10.02;66.40;95572.00;4997342;28;20189;-84
2022/11/27 08:35:13;;;;;;;25.77;18.70;;;;;;;10.07;65.99;95581.88;4995455;28;20254;-83
2022/11/27 08:37:39;;;;;;;26.73;17.83;;;;;;;10.10;66.08;95581.63;4995245;28;20200;-82
2022/11/27 08:40:08;;;;;;;30.00;19.47;;;;;;;10.13;65.97;95579.69;4995702;28;20185;-84
2022/11/27 08:42:35;;;;;;;29.77;18.73;;;;;;;10.15;65.83;95570.16;4994167;28;20193;-87
2022/11/27 08:45:02;;;;;;;26.70;20.27;;;;;;;10.20;65.79;95574.94;4993646;28;20232;-87
2022/11/27 08:47:29;;;;;;;28.60;18.93;;;;;;;10.24;65.52;95574.63;4993419;28;20192;-82
2022/11/27 08:49:56;;;;;;;30.13;19.10;;;;;;;10.23;65.42;95564.47;4992724;28;20197;-86
2022/11/27 08:52:26;;;;;;;29.40;18.97;;;;;;;10.33;65.30;95567.22;4992848;28;20196;-83
2022/11/27 08:54:55;;;;;;;28.97;20.00;;;;;;;10.38;65.04;95565.13;4992138;28;20224;-82
2022/11/27 08:57:22;;;;;;;30.77;19.87;;;;;;;10.39;65.13;95552.19;4992703;28;20201;-80
2022/11/27 08:59:48;;;;;;;28.37;20.63;;;;;;;10.48;64.99;95561.75;4974729;28;20579;-80
2022/11/27 09:02:16;;;;;;;28.03;19.60;;;;;;;10.53;64.74;95562.22;4992348;28;20193;-83
2022/11/27 09:04:42;;;;;;;28.03;19.70;;;;;;;10.47;64.53;95539.66;4991545;28;20197;-82
2022/11/27 09:07:12;;;;;;;32.00;19.73;;;;;;;10.68;64.44;95562.00;4991552;28;20201;-80
2022/11/27 09:09:41;;;;;;;30.67;20.57;;;;;;;10.69;64.35;95545.69;4991734;28;20185;-81
2022/11/27 09:12:08;;;;;;;29.50;20.13;;;;;;;10.82;64.15;95555.81;4991510;28;20288;-84
2022/11/27 09:14:35;;;;;;;31.43;20.50;;;;;;;10.90;64.02;95556.03;4992297;28;20225;-85
2022/11/27 09:17:02;;;;;;;29.17;20.63;;;;;;;10.96;63.80;95553.81;4979343;28;20190;-84
2022/11/27 09:19:28;;;;;;;30.00;21.20;;;;;;;11.05;63.73;95563.34;4972772;28;20186;-80
2022/11/27 09:21:56;;;;;;;26.23;20.63;;;;;;;11.06;63.39;95543.69;4973929;28;20202;-80
2022/11/27 09:24:23;;;;;;;30.63;20.73;;;;;;;11.17;63.32;95542.84;4972574;28;20573;-82
2022/11/27 09:26:52;;;;;;;32.57;20.27;;;;;;;11.31;63.17;95542.56;4975106;28;20213;-89
2022/11/27 09:29:18;;;;;;;28.37;20.07;;;;;;;11.39;62.88;95541.94;4989651;28;20703;-87
2022/11/27 09:31:45;;;;;;;28.77;20.37;;;;;;;11.42;62.69;95532.28;4992681;28;20199;-79
2022/11/27 09:34:13;;;;;;;29.60;20.27;;;;;;;11.52;62.57;95534.91;4993360;28;20224;-88
2022/11/27 09:36:40;;;;;;;26.60;19.23;;;;;;;11.62;62.52;95537.56;4993287;28;20199;-86
2022/11/27 09:39:09;;;;;;;31.00;20.10;;;;;;;11.70;62.25;95540.31;4994462;28;20197;-86
2022/11/27 09:41:45;;;;;;;28.43;21.07;;;;;;;11.77;62.16;95532.00;4994633;28;20215;-90
2022/11/27 09:44:44;;;;;;;30.10;20.67;;;;;;;11.64;62.04;95487.00;4994874;28;20201;-90
2022/11/27 09:47:17;;;;;;;28.57;20.63;;;;;;;11.92;61.96;95519.75;4944590;29;20199;-86
2022/11/27 09:49:50;;;;;;;29.57;20.17;;;;;;;11.90;61.63;95495.97;4947135;29;20199;-84
2022/11/27 09:52:26;;;;;;;30.07;20.27;;;;;;;12.16;61.67;95516.09;4942023;29;20270;-88
2022/11/27 09:54:58;;;;;;;27.97;19.17;;;;;;;12.28;61.25;95517.66;4934199;29;20214;-85
2022/11/27 09:57:29;;;;;;;29.77;19.97;;;;;;;12.40;60.97;95518.38;4935501;29;20270;-77
2022/11/27 10:00:05;;;;;;;28.90;20.17;;;;;;;12.46;60.99;95502.47;4937440;29;20207;-85
2022/11/27 10:02:46;;;;;;;26.70;18.50;;;;;;;12.57;61.08;95499.81;4940470;29;20210;-82
2022/11/27 10:05:18;;;;;;;26.23;21.27;;;;;;;12.58;60.48;95492.94;4940250;29;20199;-83
2022/11/27 10:08:04;;;;;;;29.47;21.03;;;;;;;12.66;60.56;95490.53;4938237;29;20195;-82
2022/11/27 10:10:43;;;;;;;28.80;20.97;;;;;;;12.79;60.27;95501.38;4937472;29;20670;-79
2022/11/27 10:13:23;;;;;;;29.10;20.97;;;;;;;12.85;60.11;95497.44;4939195;29;20206;-79
2022/11/27 10:15:57;;;;;;;33.47;22.03;;;;;;;12.89;60.04;95489.34;4939902;29;20277;-81
2022/11/27 10:18:32;;;;;;;27.70;21.53;;;;;;;12.96;59.90;95485.31;4933012;29;20265;-77
2022/11/27 10:21:09;;;;;;;31.63;22.17;;;;;;;12.97;59.73;95476.66;4937483;29;20202;-81
2022/11/27 10:23:47;;;;;;;31.27;21.67;;;;;;;13.06;59.72;95475.88;4994285;28;20189;-80
2022/11/27 10:26:19;;;;;;;31.33;22.47;;;;;;;13.12;59.53;95471.13;5002261;28;20231;-81
2022/11/27 10:28:53;;;;;;;35.13;23.03;;;;;;;13.09;59.31;95445.75;4999099;28;20193;-81
2022/11/27 10:31:31;;;;;;;30.73;22.47;;;;;;;13.17;59.30;95451.84;4997348;28;20199;-85
2022/11/27 10:34:05;;;;;;;31.87;22.73;;;;;;;13.30;59.17;95451.59;4998983;28;20204;-83
2022/11/27 10:36:37;;;;;;;30.67;22.87;;;;;;;13.35;58.88;95454.56;5003112;28;20248;-80
2022/11/27 10:39:07;;;;;;;30.83;21.50;;;;;;;13.38;58.93;95445.75;4993709;28;20200;-85
2022/11/27 10:41:41;;;;;;;30.67;22.37;;;;;;;13.46;58.76;95446.69;4994644;28;20200;-80
2022/11/27 10:44:26;;;;;;;29.47;21.60;;;;;;;13.53;58.36;95455.50;4991062;28;20189;-82
2022/11/27 10:47:01;;;;;;;29.67;22.47;;;;;;;13.43;58.37;95431.56;4989167;28;20600;-84
2022/11/27 10:49:29;;;;;;;30.83;22.77;;;;;;;13.60;58.61;95448.06;4990731;28;20247;-85
2022/11/27 10:51:55;;;;;;;32.33;22.90;;;;;;;13.33;58.50;95399.13;4990467;28;20231;-82
2022/11/27 10:54:29;;;;;;;30.30;22.47;;;;;;;13.47;58.42;95411.53;4990729;28;20211;-78
2022/11/27 10:57:24;;;;;;;32.93;22.60;;;;;;;13.67;58.27;95435.44;4991146;28;20217;-90
2022/11/27 11:00:05;;;;;;;27.83;21.47;;;;;;;13.51;58.18;95407.75;4971559;28;20202;-80
2022/11/27 11:02:37;;;;;;;32.23;22.17;;;;;;;13.72;58.23;95438.41;4971154;28;20193;-79
2022/11/27 11:05:12;;;;;;;28.43;22.07;;;;;;;13.72;57.91;95431.50;4971617;28;20182;-83
2022/11/27 11:07:40;;;;;;;30.30;22.30;;;;;;;13.73;58.14;95425.44;4971496;28;20290;-78
2022/11/27 11:10:24;;;;;;;31.80;23.43;;;;;;;13.73;57.68;95427.19;4971569;28;20194;-78
2022/11/27 11:13:08;;;;;;;28.03;20.97;;;;;;;13.73;57.77;95429.75;4971505;28;20654;-84
2022/11/27 11:15:47;;;;;;;28.00;21.57;;;;;;;13.56;57.76;95397.88;4971640;28;20621;-81
2022/11/27 11:18:18;;;;;;;27.27;20.97;;;;;;;13.71;57.60;95423.94;4974606;28;20193;-81
2022/11/27 11:21:01;;;;;;;27.43;21.10;;;;;;;13.70;57.54;95420.56;4974224;28;20225;-81
2022/11/27 11:23:34;;;;;;;27.07;19.60;;;;;;;13.70;57.53;95420.56;4993631;28;20279;-86
2022/11/27 11:26:08;;;;;;;27.50;20.10;;;;;;;13.69;57.55;95415.56;4988190;28;20236;-82
2022/11/27 11:28:44;;;;;;;27.13;20.60;;;;;;;13.66;57.62;95411.50;4992938;28;20695;-83
2022/11/27 11:31:19;;;;;;;26.03;18.77;;;;;;;13.60;57.56;95404.38;4992638;28;20195;-81
2022/11/27 11:33:56;;;;;;;24.97;17.97;;;;;;;13.55;57.36;95385.97;4990815;28;20603;-83